Terminal Aerodrome Forecast
Issued by NWS

Current Version | Previous Version | Graphics & Text | Print | Product List | Glossary On
Versions: 1 2 3 4 5 6 7 8 9 10 11 12 13
000
FTUS41 KRNK 240520
TAFLWB
TAF
KLWB 240520Z 2406/2506 00000KT P6SM FEW250
     FM241000 00000KT 3SM BR FEW250
      TEMPO 2410/2412 3/4SM BR
     FM241300 VRB02KT P6SM FEW250=

USA.gov is the U.S. government's official web portal to all federal, state and local government web resources and services.